Time;durP1;ratioP1;P1;durP2;ratioP2;P2;SDS_P1;SDS_P2;PMS_P1;PMS_P2;Temp;Humidity;BMP_temperature;BMP_pressure;BME280_temperature;BME280_humidity;BME280_pressure;Samples;Min_cycle;Max_cycle;Signal;HPM_P1;HPM_P2
2021/07/13 00:01:36;;;;;;;6.90;4.97;;;19.40;99.90;;;;;;5007902;28;20465;-75
2021/07/13 00:04:05;;;;;;;7.22;5.85;;;19.50;99.90;;;;;;5015543;28;20021;-75
2021/07/13 00:06:31;;;;;;;7.18;4.70;;;19.50;99.90;;;;;;5044687;28;20033;-74
2021/07/13 00:08:57;;;;;;;7.57;4.63;;;19.50;99.90;;;;;;5045270;28;21842;-75
2021/07/13 00:11:22;;;;;;;9.35;5.40;;;19.50;99.90;;;;;;5026527;28;20037;-75
2021/07/13 00:13:48;;;;;;;8.30;4.93;;;19.50;99.90;;;;;;5027820;28;20069;-75
2021/07/13 00:16:16;;;;;;;8.75;5.15;;;19.50;99.90;;;;;;5025699;28;20033;-75
2021/07/13 00:18:45;;;;;;;7.72;5.20;;;19.50;99.90;;;;;;5043948;28;20030;-74
2021/07/13 00:21:10;;;;;;;7.75;5.30;;;19.50;99.90;;;;;;5027672;28;20127;-74
2021/07/13 00:23:41;;;;;;;6.72;4.70;;;19.50;99.90;;;;;;5042717;28;20033;-74
2021/07/13 00:26:09;;;;;;;7.30;4.97;;;19.50;99.90;;;;;;5027724;28;20116;-74
2021/07/13 00:28:39;;;;;;;6.50;5.40;;;19.50;99.90;;;;;;5027253;28;20057;-74
2021/07/13 00:31:07;;;;;;;10.02;5.80;;;19.40;99.90;;;;;;5042479;28;20463;-75
2021/07/13 00:33:36;;;;;;;7.10;5.93;;;19.40;99.90;;;;;;5027694;28;20029;-74
2021/07/13 00:36:04;;;;;;;8.38;5.97;;;19.40;99.90;;;;;;5042718;28;20029;-74
2021/07/13 00:38:34;;;;;;;7.65;6.07;;;19.40;99.90;;;;;;5042776;28;20075;-74
2021/07/13 00:41:00;;;;;;;7.68;6.00;;;19.30;99.90;;;;;;5027703;28;20038;-73
2021/07/13 00:43:25;;;;;;;7.50;6.47;;;19.30;99.90;;;;;;5043642;28;20533;-74
2021/07/13 00:45:53;;;;;;;6.90;6.10;;;19.20;99.90;;;;;;5026821;28;20037;-74
2021/07/13 00:48:19;;;;;;;9.15;6.60;;;19.20;99.90;;;;;;4993913;28;20635;-74
2021/07/13 00:50:45;;;;;;;9.55;6.55;;;19.30;99.90;;;;;;5026946;28;20067;-74
2021/07/13 00:53:11;;;;;;;10.70;5.88;;;19.30;99.90;;;;;;5026376;28;20109;-73
2021/07/13 00:55:36;;;;;;;12.10;7.38;;;19.30;99.90;;;;;;5027356;28;20526;-73
2021/07/13 00:58:04;;;;;;;9.27;6.45;;;19.30;99.90;;;;;;5026898;28;20057;-73
2021/07/13 01:00:35;;;;;;;7.38;6.22;;;19.30;99.90;;;;;;5026802;28;20048;-73
2021/07/13 01:03:04;;;;;;;9.57;6.25;;;19.30;99.90;;;;;;5026900;28;20606;-74
2021/07/13 01:05:40;;;;;;;9.68;6.40;;;19.30;99.90;;;;;;5008128;28;20124;-73
2021/07/13 01:08:21;;;;;;;11.18;6.68;;;19.30;99.90;;;;;;5009047;28;20017;-73
2021/07/13 01:11:27;;;;;;;9.68;6.65;;;19.30;99.90;;;;;;5027011;28;20534;-73
2021/07/13 01:14:05;;;;;;;9.40;6.10;;;19.30;99.90;;;;;;4957259;28;20086;-73
2021/07/13 01:16:50;;;;;;;9.50;6.75;;;19.30;99.90;;;;;;4994452;28;20067;-73
2021/07/13 01:19:33;;;;;;;10.50;6.78;;;19.30;99.90;;;;;;5010081;28;20047;-73
2021/07/13 01:22:04;;;;;;;9.73;6.50;;;19.30;99.90;;;;;;5027200;28;20057;-73
2021/07/13 01:24:36;;;;;;;7.75;5.72;;;19.30;99.90;;;;;;5026242;28;20055;-73
2021/07/13 01:27:12;;;;;;;8.60;6.20;;;19.30;99.90;;;;;;5026487;28;20088;-73
2021/07/13 01:29:38;;;;;;;13.02;6.82;;;19.30;99.90;;;;;;5009465;28;20043;-69
2021/07/13 01:32:04;;;;;;;10.57;6.00;;;19.30;99.90;;;;;;4678141;28;10000131;-70
2021/07/13 01:34:39;;;;;;;11.38;6.40;;;19.30;99.90;;;;;;5008586;28;20084;-69
2021/07/13 01:37:07;;;;;;;11.95;5.93;;;19.30;99.90;;;;;;5027618;28;20474;-70
2021/07/13 01:39:33;;;;;;;9.38;5.28;;;19.30;99.90;;;;;;5042235;28;20025;-69
2021/07/13 01:42:03;;;;;;;8.25;5.40;;;19.30;99.90;;;;;;5026223;28;20025;-69
2021/07/13 01:44:29;;;;;;;10.32;5.55;;;19.20;99.90;;;;;;5041570;28;20025;-70
2021/07/13 01:46:54;;;;;;;9.85;5.88;;;19.30;99.90;;;;;;5026185;28;20028;-70
2021/07/13 01:49:22;;;;;;;9.82;6.30;;;19.30;99.90;;;;;;5027641;28;20056;-70
2021/07/13 01:51:50;;;;;;;10.15;5.63;;;19.30;99.90;;;;;;5025464;28;20466;-69
2021/07/13 01:54:16;;;;;;;11.32;5.30;;;19.30;99.90;;;;;;5043293;28;20036;-69
2021/07/13 01:56:45;;;;;;;12.10;6.55;;;19.30;99.90;;;;;;5032200;28;20068;-68
2021/07/13 01:59:18;;;;;;;9.73;6.47;;;19.30;99.90;;;;;;5062254;28;20032;-69
2021/07/13 02:01:44;;;;;;;8.68;5.95;;;19.30;99.90;;;;;;5061121;28;20110;-69
2021/07/13 02:04:10;;;;;;;10.40;6.20;;;19.20;99.90;;;;;;5044452;28;20665;-68
2021/07/13 02:06:35;;;;;;;8.18;5.03;;;19.30;99.90;;;;;;5011158;28;20037;-68
2021/07/13 02:09:07;;;;;;;7.70;5.60;;;19.30;99.90;;;;;;5061394;28;20597;-69
2021/07/13 02:11:33;;;;;;;10.13;5.47;;;19.30;99.90;;;;;;5061560;28;20289;-69
2021/07/13 02:13:58;;;;;;;10.07;5.53;;;19.30;99.90;;;;;;5061086;28;20486;-69
2021/07/13 02:16:24;;;;;;;9.40;5.53;;;19.30;99.90;;;;;;5045380;28;21969;-69
2021/07/13 02:18:50;;;;;;;10.65;6.13;;;19.30;99.90;;;;;;5027457;28;20526;-68
2021/07/13 02:21:16;;;;;;;8.88;5.28;;;19.30;99.90;;;;;;5045783;28;20818;-68
2021/07/13 02:23:42;;;;;;;12.32;6.90;;;19.30;99.90;;;;;;5060740;28;20054;-69
2021/07/13 02:26:09;;;;;;;11.55;6.28;;;19.30;99.90;;;;;;5045025;28;20055;-68
2021/07/13 02:28:40;;;;;;;10.80;5.80;;;19.30;99.90;;;;;;5061175;28;20039;-67
2021/07/13 02:31:19;;;;;;;9.98;6.07;;;19.30;99.90;;;;;;5060343;28;20039;-67
2021/07/13 02:34:03;;;;;;;11.50;6.13;;;19.30;99.90;;;;;;5042526;28;20396;-67
2021/07/13 02:36:31;;;;;;;9.15;5.95;;;19.30;99.90;;;;;;5045264;28;20122;-67
2021/07/13 02:38:57;;;;;;;8.48;6.10;;;19.30;99.90;;;;;;5042607;28;20424;-67
2021/07/13 02:41:23;;;;;;;9.25;6.00;;;19.30;99.90;;;;;;5011836;28;20119;-68
2021/07/13 02:43:49;;;;;;;11.55;6.43;;;19.30;99.90;;;;;;5061158;28;20032;-68
2021/07/13 02:46:17;;;;;;;8.48;5.72;;;19.30;99.90;;;;;;5044869;28;20020;-68
2021/07/13 02:48:45;;;;;;;8.80;5.75;;;19.30;99.90;;;;;;5061448;28;20574;-69
2021/07/13 02:51:16;;;;;;;8.88;6.50;;;19.30;99.90;;;;;;5042968;28;20433;-69
2021/07/13 02:53:42;;;;;;;9.25;5.75;;;19.30;99.90;;;;;;5044344;28;20037;-68
2021/07/13 02:56:10;;;;;;;11.50;6.55;;;19.30;99.90;;;;;;5060616;28;20114;-68
2021/07/13 02:58:36;;;;;;;9.60;5.75;;;19.30;99.90;;;;;;5063158;28;20115;-68
2021/07/13 03:01:05;;;;;;;8.32;6.10;;;19.30;99.90;;;;;;5012735;28;20036;-68
2021/07/13 03:03:30;;;;;;;9.15;5.97;;;19.30;99.90;;;;;;5044066;28;20024;-68
2021/07/13 03:06:00;;;;;;;7.55;5.80;;;19.30;99.90;;;;;;5043152;28;20037;-66
2021/07/13 03:08:26;;;;;;;9.38;6.28;;;19.30;99.90;;;;;;5060419;28;20021;-66
2021/07/13 03:10:54;;;;;;;9.30;5.80;;;19.30;99.90;;;;;;5059374;28;20036;-66
2021/07/13 03:13:21;;;;;;;8.95;5.60;;;19.30;99.90;;;;;;5026849;28;20576;-66
2021/07/13 03:15:47;;;;;;;9.90;5.93;;;19.30;99.90;;;;;;5011182;28;20173;-66
2021/07/13 03:18:13;;;;;;;8.70;5.80;;;19.30;99.90;;;;;;5046406;28;20028;-65
2021/07/13 03:20:46;;;;;;;7.53;5.10;;;19.30;99.90;;;;;;5032064;28;20029;-66
2021/07/13 03:23:11;;;;;;;7.53;5.25;;;19.30;99.90;;;;;;5013885;28;20118;-66
2021/07/13 03:25:40;;;;;;;7.85;5.70;;;19.30;99.90;;;;;;5030577;28;20029;-66
2021/07/13 03:28:06;;;;;;;15.27;5.90;;;19.30;99.90;;;;;;5046818;28;20037;-65
2021/07/13 03:30:31;;;;;;;9.55;6.20;;;19.30;99.90;;;;;;5046299;28;20099;-65
2021/07/13 03:32:57;;;;;;;10.73;5.78;;;19.30;99.90;;;;;;5016514;28;20036;-65
2021/07/13 03:35:23;;;;;;;8.13;5.65;;;19.30;99.90;;;;;;5031891;28;20111;-66
2021/07/13 03:37:49;;;;;;;7.53;5.07;;;19.30;99.90;;;;;;5046566;28;20032;-65
2021/07/13 03:40:15;;;;;;;6.68;5.18;;;19.30;99.90;;;;;;5048185;28;20473;-66
2021/07/13 03:42:44;;;;;;;10.10;6.10;;;19.30;99.90;;;;;;5031569;28;20043;-65
2021/07/13 03:45:16;;;;;;;10.13;5.80;;;19.20;99.90;;;;;;5033007;28;20036;-67
2021/07/13 03:48:00;;;;;;;7.53;5.40;;;19.20;99.90;;;;;;5023802;28;20025;-66
2021/07/13 03:50:28;;;;;;;9.40;5.07;;;19.20;99.90;;;;;;5047975;28;20071;-66
2021/07/13 03:52:56;;;;;;;8.90;4.95;;;19.20;99.90;;;;;;5030365;28;20151;-66
2021/07/13 03:55:22;;;;;;;10.15;5.57;;;19.20;99.90;;;;;;5047191;28;20032;-67
2021/07/13 03:57:48;;;;;;;9.07;5.68;;;19.30;99.90;;;;;;5064003;28;20071;-66
2021/07/13 04:00:20;;;;;;;7.60;4.90;;;19.20;99.90;;;;;;5063615;28;20035;-66
2021/07/13 04:02:45;;;;;;;8.40;4.70;;;19.20;99.90;;;;;;5013993;28;20037;-67
2021/07/13 04:05:12;;;;;;;7.55;4.70;;;19.30;99.90;;;;;;5049330;28;20039;-67
2021/07/13 04:07:38;;;;;;;7.25;4.55;;;19.20;99.90;;;;;;5030939;28;20086;-67
2021/07/13 04:10:08;;;;;;;7.20;5.00;;;19.20;99.90;;;;;;5030451;28;21849;-67
2021/07/13 04:12:33;;;;;;;6.85;4.70;;;19.20;99.90;;;;;;5014275;28;20174;-67
2021/07/13 04:14:59;;;;;;;6.78;4.80;;;19.30;99.90;;;;;;5047721;28;20025;-66
2021/07/13 04:17:25;;;;;;;7.50;4.68;;;19.20;99.90;;;;;;5030643;28;20029;-67
2021/07/13 04:19:50;;;;;;;7.47;4.70;;;19.20;99.90;;;;;;5047466;28;20451;-66
2021/07/13 04:22:18;;;;;;;7.07;4.53;;;19.20;99.90;;;;;;5046810;28;20157;-66
2021/07/13 04:24:44;;;;;;;6.85;4.93;;;19.20;99.90;;;;;;5028937;28;20025;-66
2021/07/13 04:27:10;;;;;;;7.82;4.28;;;19.20;99.90;;;;;;5029586;28;20718;-66
2021/07/13 04:29:38;;;;;;;7.75;4.70;;;19.30;99.90;;;;;;5047958;28;20489;-66
2021/07/13 04:32:04;;;;;;;12.98;4.70;;;19.30;99.90;;;;;;5030041;28;20449;-69
2021/07/13 04:34:31;;;;;;;8.52;5.30;;;19.30;99.90;;;;;;5047715;28;20526;-67
2021/07/13 04:37:01;;;;;;;9.32;5.28;;;19.20;99.90;;;;;;5047349;28;20029;-67
2021/07/13 04:39:27;;;;;;;7.50;4.80;;;19.20;99.90;;;;;;5025995;28;20037;-67
2021/07/13 04:41:53;;;;;;;8.93;5.25;;;19.20;99.90;;;;;;5046284;28;20513;-66
2021/07/13 04:44:18;;;;;;;7.40;5.82;;;19.30;99.90;;;;;;5063147;28;20029;-66
2021/07/13 04:46:44;;;;;;;9.90;5.60;;;19.20;99.90;;;;;;5028516;28;20033;-67
2021/07/13 04:49:10;;;;;;;8.48;6.18;;;19.30;99.90;;;;;;5047261;28;20672;-66
2021/07/13 04:51:36;;;;;;;9.15;6.50;;;19.20;99.90;;;;;;5063067;28;20033;-66
2021/07/13 04:54:01;;;;;;;11.75;6.95;;;19.30;99.90;;;;;;5047388;28;20028;-66
2021/07/13 04:56:27;;;;;;;13.43;6.70;;;19.20;99.90;;;;;;5029510;28;20056;-66
2021/07/13 04:58:52;;;;;;;9.88;6.22;;;19.20;99.90;;;;;;5048334;28;20039;-66
2021/07/13 05:01:20;;;;;;;6.75;5.68;;;19.30;99.90;;;;;;5062926;28;20454;-66
2021/07/13 05:03:46;;;;;;;13.02;7.45;;;19.30;99.90;;;;;;5061666;28;20378;-66
2021/07/13 05:06:11;;;;;;;9.18;6.97;;;19.30;99.90;;;;;;5046924;28;20117;-66
2021/07/13 05:08:37;;;;;;;9.60;6.68;;;19.30;99.90;;;;;;5047631;28;20035;-67
2021/07/13 05:11:06;;;;;;;11.00;7.10;;;19.30;99.90;;;;;;5029092;28;20041;-67
2021/07/13 05:13:34;;;;;;;9.02;7.03;;;19.30;99.90;;;;;;5046468;28;20024;-66
2021/07/13 05:16:02;;;;;;;9.82;6.32;;;19.30;99.90;;;;;;5028983;28;20028;-66
2021/07/13 05:18:30;;;;;;;9.25;6.90;;;19.30;99.90;;;;;;5046622;28;20191;-66
2021/07/13 05:21:00;;;;;;;8.07;6.18;;;19.40;99.90;;;;;;5061513;28;20888;-66
2021/07/13 05:23:28;;;;;;;11.38;6.30;;;19.40;99.90;;;;;;5045832;28;20520;-66
2021/07/13 05:25:59;;;;;;;10.40;6.28;;;19.40;99.90;;;;;;5025597;28;20120;-66
2021/07/13 05:28:24;;;;;;;6.82;5.38;;;19.40;99.90;;;;;;5029097;28;20029;-66
2021/07/13 05:30:53;;;;;;;7.57;6.10;;;19.40;99.90;;;;;;5061797;28;20478;-66
2021/07/13 05:33:18;;;;;;;6.65;5.10;;;19.40;99.90;;;;;;5046419;28;20118;-66
2021/07/13 05:35:44;;;;;;;8.40;5.10;;;19.40;99.90;;;;;;5046903;28;20361;-66
2021/07/13 05:38:12;;;;;;;7.47;4.80;;;19.40;99.90;;;;;;5046198;28;20040;-66
2021/07/13 05:40:37;;;;;;;6.80;4.38;;;19.40;99.90;;;;;;5046119;28;20040;-66
2021/07/13 05:43:03;;;;;;;8.63;5.30;;;19.40;99.90;;;;;;5030294;28;20033;-66
2021/07/13 05:45:31;;;;;;;9.93;5.78;;;19.40;99.90;;;;;;5011983;28;20415;-66
2021/07/13 05:47:56;;;;;;;10.32;6.00;;;19.40;99.90;;;;;;5045787;28;20024;-66
2021/07/13 05:50:24;;;;;;;9.35;5.38;;;19.40;99.90;;;;;;5046481;28;20098;-66
2021/07/13 05:52:50;;;;;;;7.93;5.55;;;19.40;99.90;;;;;;5061464;28;20029;-66
2021/07/13 05:55:16;;;;;;;8.18;5.22;;;19.50;99.90;;;;;;5033384;28;20087;-66
2021/07/13 05:57:46;;;;;;;7.25;4.63;;;19.50;99.90;;;;;;5028156;28;20044;-66
2021/07/13 06:00:14;;;;;;;7.03;4.50;;;19.50;99.90;;;;;;5061193;28;20028;-66
2021/07/13 06:02:43;;;;;;;6.55;4.38;;;19.50;99.90;;;;;;5061205;28;20040;-66
2021/07/13 06:05:11;;;;;;;7.03;4.30;;;19.50;99.90;;;;;;5045784;28;20085;-66
2021/07/13 06:07:49;;;;;;;8.40;4.13;;;19.50;99.90;;;;;;5046130;28;20399;-66
2021/07/13 06:10:21;;;;;;;7.05;4.30;;;19.50;99.90;;;;;;5061485;28;20025;-67
2021/07/13 06:12:47;;;;;;;6.72;3.97;;;19.50;99.90;;;;;;5045768;28;20041;-68
2021/07/13 06:15:15;;;;;;;6.47;4.05;;;19.50;99.90;;;;;;5028443;28;20036;-68
2021/07/13 06:17:41;;;;;;;7.40;3.97;;;19.50;99.90;;;;;;5022910;28;20044;-68
2021/07/13 06:20:07;;;;;;;7.82;4.22;;;19.50;99.90;;;;;;5029077;28;20029;-68
2021/07/13 06:22:33;;;;;;;7.57;4.65;;;19.50;99.90;;;;;;5045870;28;20033;-68
2021/07/13 06:24:58;;;;;;;7.82;4.38;;;19.50;99.90;;;;;;5045272;28;20184;-68
2021/07/13 06:27:24;;;;;;;6.88;3.92;;;19.60;99.90;;;;;;5045174;28;20111;-68
2021/07/13 06:29:54;;;;;;;6.85;3.92;;;19.60;99.90;;;;;;5044853;28;20029;-68
2021/07/13 06:32:22;;;;;;;7.80;4.70;;;19.60;99.90;;;;;;5044317;28;20454;-68
2021/07/13 06:34:52;;;;;;;10.38;4.63;;;19.60;99.90;;;;;;5044396;28;20040;-68
2021/07/13 06:37:20;;;;;;;7.80;4.40;;;19.50;99.90;;;;;;5046135;28;20112;-72
2021/07/13 06:39:46;;;;;;;7.80;5.15;;;19.60;99.90;;;;;;5044513;28;20393;-71
2021/07/13 06:42:12;;;;;;;8.43;5.70;;;19.60;99.90;;;;;;5045636;28;20036;-68
2021/07/13 06:44:37;;;;;;;11.18;5.40;;;19.60;99.90;;;;;;5060018;28;20171;-68
2021/07/13 06:47:05;;;;;;;11.18;7.28;;;19.60;99.90;;;;;;5060262;28;20132;-68
2021/07/13 06:49:31;;;;;;;7.78;6.25;;;19.60;99.90;;;;;;5045594;28;20086;-68
2021/07/13 06:51:57;;;;;;;9.45;6.15;;;19.60;99.90;;;;;;5028758;28;20037;-68
2021/07/13 06:54:22;;;;;;;8.50;6.03;;;19.60;99.90;;;;;;5048895;28;20040;-68
2021/07/13 06:56:52;;;;;;;8.77;6.88;;;19.70;99.90;;;;;;5048907;28;20092;-70
2021/07/13 06:59:18;;;;;;;9.13;6.13;;;19.70;99.90;;;;;;5046701;28;20033;-70
2021/07/13 07:01:46;;;;;;;9.23;5.95;;;19.60;99.90;;;;;;5047740;28;20040;-70
2021/07/13 07:04:12;;;;;;;8.88;6.07;;;19.60;99.90;;;;;;5050091;28;20964;-68
2021/07/13 07:06:37;;;;;;;7.57;5.35;;;19.70;99.90;;;;;;5030187;28;20166;-68
2021/07/13 07:09:08;;;;;;;9.75;6.45;;;19.60;99.90;;;;;;5030313;28;20028;-68
2021/07/13 07:11:35;;;;;;;7.93;5.63;;;19.70;99.90;;;;;;5030472;28;20037;-68
2021/07/13 07:14:03;;;;;;;8.88;4.80;;;19.70;99.90;;;;;;5050191;28;20036;-68
2021/07/13 07:16:29;;;;;;;8.02;5.60;;;19.80;99.90;;;;;;5028757;28;20032;-68
2021/07/13 07:18:55;;;;;;;8.02;5.47;;;19.80;99.90;;;;;;5030432;28;20041;-68
2021/07/13 07:21:25;;;;;;;7.53;5.22;;;19.80;99.90;;;;;;5032241;28;20075;-68
2021/07/13 07:23:50;;;;;;;7.57;4.85;;;19.80;99.90;;;;;;5049071;28;20458;-69
2021/07/13 07:26:16;;;;;;;6.57;5.45;;;19.70;99.90;;;;;;5047728;28;20033;-68
2021/07/13 07:28:42;;;;;;;8.18;5.28;;;19.70;99.90;;;;;;5064277;28;20032;-69
2021/07/13 07:31:14;;;;;;;7.28;5.10;;;19.70;99.90;;;;;;5048291;28;20043;-69
2021/07/13 07:33:42;;;;;;;7.22;4.78;;;19.70;99.90;;;;;;5048907;28;20134;-69
2021/07/13 07:36:08;;;;;;;6.40;4.45;;;19.80;99.90;;;;;;5048798;28;20107;-68
2021/07/13 07:38:36;;;;;;;6.13;4.70;;;19.80;99.90;;;;;;5049758;28;20105;-68
2021/07/13 07:41:04;;;;;;;6.32;4.63;;;19.80;99.90;;;;;;5032704;28;20540;-69
2021/07/13 07:43:30;;;;;;;7.75;4.95;;;19.80;99.90;;;;;;5049118;28;20021;-69
2021/07/13 07:45:55;;;;;;;11.98;5.20;;;19.80;99.90;;;;;;5048453;28;20035;-69
2021/07/13 07:48:21;;;;;;;6.47;5.15;;;19.90;99.90;;;;;;5049121;28;20044;-69
2021/07/13 07:50:49;;;;;;;9.20;5.50;;;19.90;99.90;;;;;;5047906;28;20029;-69
2021/07/13 07:53:14;;;;;;;7.28;5.20;;;19.90;99.90;;;;;;5047126;28;20478;-67
2021/07/13 07:55:43;;;;;;;7.80;5.00;;;20.00;99.90;;;;;;5047331;28;20172;-66
2021/07/13 07:58:13;;;;;;;6.60;4.93;;;20.00;99.90;;;;;;5046889;28;20041;-67
2021/07/13 08:00:40;;;;;;;7.80;5.45;;;20.00;99.90;;;;;;5019901;28;20040;-67
2021/07/13 08:03:06;;;;;;;9.25;5.40;;;20.00;99.90;;;;;;5047684;28;20454;-67
2021/07/13 08:05:37;;;;;;;12.35;5.57;;;20.00;99.90;;;;;;5029670;28;20040;-67
2021/07/13 08:08:02;;;;;;;8.45;5.65;;;20.10;99.90;;;;;;5049781;28;20043;-67
2021/07/13 08:10:28;;;;;;;7.00;5.35;;;20.10;99.90;;;;;;5031559;28;20037;-67
2021/07/13 08:12:58;;;;;;;7.78;5.97;;;20.10;99.90;;;;;;5047626;28;20033;-68
2021/07/13 08:15:26;;;;;;;8.77;6.00;;;20.10;99.90;;;;;;5031212;28;20450;-67
2021/07/13 08:17:52;;;;;;;8.98;5.72;;;20.20;99.90;;;;;;5047815;28;20029;-64
2021/07/13 08:20:18;;;;;;;8.38;6.13;;;20.30;99.90;;;;;;5064008;28;20043;-66
2021/07/13 08:22:46;;;;;;;9.75;5.57;;;20.30;99.90;;;;;;5045872;28;20037;-68
2021/07/13 08:25:14;;;;;;;6.80;6.00;;;20.40;99.90;;;;;;5030395;28;20043;-68
2021/07/13 08:27:40;;;;;;;7.25;5.30;;;20.50;99.90;;;;;;5034956;28;20461;-68
2021/07/13 08:30:06;;;;;;;7.35;4.90;;;20.50;99.90;;;;;;5063219;28;20029;-66
2021/07/13 08:32:33;;;;;;;6.95;5.57;;;20.70;99.90;;;;;;5019021;28;20562;-68
2021/07/13 08:34:59;;;;;;;7.82;5.38;;;20.80;99.90;;;;;;5047022;28;20126;-66
2021/07/13 08:37:27;;;;;;;10.85;8.32;;;20.90;99.90;;;;;;5046819;28;20048;-62
2021/07/13 08:39:52;;;;;;;10.20;7.50;;;21.00;99.90;;;;;;5045202;28;20024;-63
2021/07/13 08:42:18;;;;;;;15.02;6.30;;;21.10;99.90;;;;;;5062024;28;20502;-63
2021/07/13 08:44:46;;;;;;;7.95;5.82;;;21.20;99.90;;;;;;5045623;28;20036;-66
2021/07/13 08:47:17;;;;;;;8.82;6.00;;;21.30;99.90;;;;;;5046616;28;20035;-66
2021/07/13 08:49:47;;;;;;;9.27;5.75;;;21.30;99.90;;;;;;5045720;28;20029;-67
2021/07/13 08:52:13;;;;;;;7.65;5.70;;;21.40;99.90;;;;;;5029581;28;20028;-67
2021/07/13 08:54:39;;;;;;;7.78;6.22;;;21.40;99.90;;;;;;5028628;28;20029;-67
2021/07/13 08:57:04;;;;;;;6.63;5.88;;;21.40;99.90;;;;;;5062877;28;20128;-67
2021/07/13 08:59:32;;;;;;;10.32;6.32;;;21.50;99.90;;;;;;5062020;28;20060;-67
2021/07/13 09:02:00;;;;;;;7.88;6.15;;;21.60;99.90;;;;;;5045579;28;20074;-67
2021/07/13 09:04:35;;;;;;;8.05;6.30;;;21.60;99.90;;;;;;5045888;28;20040;-67
2021/07/13 09:07:09;;;;;;;8.77;6.10;;;21.70;99.90;;;;;;5046400;28;20037;-66
2021/07/13 09:09:44;;;;;;;6.97;6.20;;;21.70;99.90;;;;;;5030993;28;20364;-66
2021/07/13 09:12:17;;;;;;;7.32;5.85;;;21.80;99.90;;;;;;5045291;28;20036;-66
2021/07/13 09:14:50;;;;;;;9.55;5.90;;;21.80;99.90;;;;;;5036634;28;20040;-66
2021/07/13 09:17:29;;;;;;;11.32;6.00;;;21.80;99.90;;;;;;5027812;28;20359;-66
2021/07/13 09:20:21;;;;;;;7.43;5.80;;;21.80;99.90;;;;;;5046302;28;20466;-67
2021/07/13 09:23:04;;;;;;;9.27;5.70;;;21.80;99.90;;;;;;5039131;28;20147;-67
2021/07/13 09:25:32;;;;;;;7.72;6.05;;;21.80;99.90;;;;;;5045834;28;20021;-66
2021/07/13 09:28:24;;;;;;;7.82;6.05;;;21.80;99.90;;;;;;5028578;28;20442;-66
2021/07/13 09:30:57;;;;;;;7.93;6.13;;;21.80;99.90;;;;;;4695641;28;10000073;-66
2021/07/13 09:33:28;;;;;;;7.07;5.20;;;21.70;99.90;;;;;;5050223;28;20033;-69
2021/07/13 09:36:04;;;;;;;8.32;5.95;;;21.60;99.90;;;;;;5028446;28;20060;-68
2021/07/13 09:38:32;;;;;;;7.88;5.75;;;21.60;99.90;;;;;;5045245;28;20021;-69
2021/07/13 09:41:14;;;;;;;7.32;6.03;;;21.60;99.90;;;;;;5028890;28;20171;-68
2021/07/13 09:43:44;;;;;;;7.30;6.05;;;21.60;99.90;;;;;;5046360;28;20037;-69
2021/07/13 09:46:30;;;;;;;8.85;6.07;;;21.60;99.90;;;;;;5061744;28;20036;-68
2021/07/13 09:49:14;;;;;;;9.18;6.50;;;21.60;99.90;;;;;;5026810;28;20040;-68
2021/07/13 09:51:45;;;;;;;9.15;6.63;;;21.50;99.90;;;;;;5060509;28;20155;-68
2021/07/13 09:54:32;;;;;;;7.10;6.40;;;21.50;99.90;;;;;;5044999;28;20078;-68
2021/07/13 09:56:59;;;;;;;9.85;6.43;;;21.40;99.90;;;;;;5044285;28;20064;-65
2021/07/13 09:59:25;;;;;;;8.73;6.57;;;21.40;99.90;;;;;;5008491;28;20024;-69
2021/07/13 10:01:53;;;;;;;7.15;6.05;;;21.30;99.90;;;;;;5025935;28;20473;-69
2021/07/13 10:04:20;;;;;;;7.47;6.28;;;21.30;99.90;;;;;;5027622;28;20558;-72
2021/07/13 10:06:47;;;;;;;7.10;6.03;;;21.30;99.90;;;;;;5043633;28;20080;-68
2021/07/13 10:09:13;;;;;;;8.10;6.35;;;21.30;99.90;;;;;;5042859;28;20091;-68
2021/07/13 10:11:39;;;;;;;7.72;6.13;;;21.30;99.90;;;;;;5026578;28;20092;-69
2021/07/13 10:14:06;;;;;;;9.15;6.40;;;21.30;99.90;;;;;;5044601;28;20052;-68
2021/07/13 10:16:34;;;;;;;9.32;6.97;;;21.30;99.90;;;;;;5045882;28;20399;-68
2021/07/13 10:19:04;;;;;;;7.38;6.40;;;21.30;99.90;;;;;;5044598;28;20036;-68
2021/07/13 10:21:30;;;;;;;8.43;6.70;;;21.30;99.90;;;;;;5028012;28;20040;-68
2021/07/13 10:23:55;;;;;;;8.77;7.28;;;21.30;99.90;;;;;;5028159;28;20028;-68
2021/07/13 10:26:44;;;;;;;6.72;6.00;;;21.30;99.90;;;;;;5041932;28;20039;-68
2021/07/13 10:29:35;;;;;;;8.93;6.57;;;21.30;99.90;;;;;;5046099;28;20020;-69
2021/07/13 10:32:27;;;;;;;7.25;6.07;;;21.30;99.90;;;;;;5047073;28;20029;-69
2021/07/13 10:34:54;;;;;;;8.00;5.88;;;21.30;99.90;;;;;;5028240;28;20124;-69
2021/07/13 10:37:35;;;;;;;7.90;6.18;;;21.20;99.90;;;;;;5046294;28;20033;-69
2021/07/13 10:40:08;;;;;;;9.63;6.07;;;21.20;99.90;;;;;;5044308;28;20052;-68
2021/07/13 10:42:42;;;;;;;7.22;6.00;;;21.20;99.90;;;;;;5059632;28;20102;-65
2021/07/13 10:45:27;;;;;;;7.80;5.95;;;21.30;99.90;;;;;;5046676;28;20552;-69
2021/07/13 10:48:08;;;;;;;7.50;5.57;;;21.30;99.90;;;;;;5059058;28;20045;-69
2021/07/13 10:50:38;;;;;;;9.45;6.28;;;21.30;99.90;;;;;;5044635;28;20065;-68
2021/07/13 10:53:08;;;;;;;10.15;6.15;;;21.30;99.90;;;;;;5059358;28;20025;-69
2021/07/13 10:55:41;;;;;;;8.15;6.38;;;21.30;99.90;;;;;;5045387;28;20118;-68
2021/07/13 10:58:10;;;;;;;7.90;5.90;;;21.30;99.90;;;;;;5026990;28;20045;-69
2021/07/13 11:00:51;;;;;;;6.78;6.07;;;21.30;99.90;;;;;;5043544;28;20502;-69
2021/07/13 11:03:29;;;;;;;8.57;7.63;;;21.30;99.90;;;;;;5044203;28;20415;-69
2021/07/13 11:05:55;;;;;;;8.63;6.70;;;21.20;99.90;;;;;;5027924;28;20021;-68
2021/07/13 11:08:45;;;;;;;8.80;7.25;;;21.20;99.90;;;;;;5045967;28;20024;-68
2021/07/13 11:11:14;;;;;;;10.45;7.20;;;21.20;99.90;;;;;;5044334;28;20098;-68
2021/07/13 11:13:44;;;;;;;8.27;7.43;;;21.20;99.90;;;;;;5044372;28;20126;-66
2021/07/13 11:16:17;;;;;;;10.27;6.93;;;21.20;99.90;;;;;;5045558;28;20078;-65
2021/07/13 11:18:42;;;;;;;8.80;7.35;;;21.20;99.90;;;;;;5044532;28;20037;-66
2021/07/13 11:21:21;;;;;;;8.68;7.43;;;21.20;99.90;;;;;;5044177;28;20461;-68
2021/07/13 11:23:52;;;;;;;8.10;6.95;;;21.20;99.90;;;;;;5044779;28;20048;-68
2021/07/13 11:26:18;;;;;;;8.52;6.72;;;21.10;99.90;;;;;;5009604;28;20662;-67
2021/07/13 11:28:44;;;;;;;11.18;7.30;;;21.10;99.90;;;;;;5042738;28;20506;-68
2021/07/13 11:31:19;;;;;;;7.97;6.65;;;21.00;99.90;;;;;;5044456;28;20084;-68
2021/07/13 11:34:12;;;;;;;13.70;6.78;;;21.00;99.90;;;;;;5042547;28;20901;-67
2021/07/13 11:36:44;;;;;;;9.00;6.75;;;21.10;99.90;;;;;;5024174;28;20037;-68
2021/07/13 11:39:13;;;;;;;9.05;6.95;;;21.20;99.90;;;;;;5047191;28;20937;-67
2021/07/13 11:41:39;;;;;;;9.10;7.07;;;21.20;99.90;;;;;;5063317;28;20366;-67
2021/07/13 11:44:09;;;;;;;7.80;5.93;;;21.30;99.90;;;;;;5048086;28;20021;-67
2021/07/13 11:46:36;;;;;;;7.70;6.30;;;21.40;99.90;;;;;;5028409;28;20028;-67
2021/07/13 11:49:08;;;;;;;10.13;6.70;;;21.40;99.90;;;;;;5047752;28;20568;-67
2021/07/13 11:51:36;;;;;;;;;;;21.40;99.90;;;;;;5049730;28;20041;-67
2021/07/13 11:54:10;;;;;;;9.95;7.03;;;21.40;99.90;;;;;;5029263;28;20553;-67
2021/07/13 11:56:39;;;;;;;8.52;7.30;;;21.50;99.90;;;;;;5062900;28;20079;-67
2021/07/13 11:59:06;;;;;;;8.77;7.90;;;21.60;99.90;;;;;;5029629;28;20147;-68
2021/07/13 12:01:34;;;;;;;9.98;7.00;;;21.70;99.90;;;;;;5030550;28;20151;-68
2021/07/13 12:04:04;;;;;;;15.02;8.48;;;21.70;99.90;;;;;;5047289;28;20051;-68
2021/07/13 12:06:29;;;;;;;11.65;7.80;;;21.80;99.90;;;;;;5046863;28;20025;-68
2021/07/13 12:09:02;;;;;;;9.50;7.35;;;21.80;99.90;;;;;;5047522;28;20569;-68
2021/07/13 12:11:30;;;;;;;9.13;6.65;;;21.90;99.90;;;;;;5047958;28;20064;-69
2021/07/13 12:13:57;;;;;;;8.32;6.50;;;22.00;99.90;;;;;;5062843;28;20108;-68
2021/07/13 12:16:33;;;;;;;8.50;7.45;;;22.10;99.90;;;;;;5049230;28;20048;-69
2021/07/13 12:19:00;;;;;;;8.55;6.78;;;22.20;99.90;;;;;;5047578;28;20040;-69
2021/07/13 12:21:26;;;;;;;9.57;7.30;;;22.40;99.90;;;;;;5047664;28;20028;-69
2021/07/13 12:23:54;;;;;;;8.05;6.60;;;22.50;99.90;;;;;;5048211;28;20733;-68
2021/07/13 12:26:33;;;;;;;8.95;6.60;;;22.50;99.90;;;;;;5047804;28;20127;-68
2021/07/13 12:28:59;;;;;;;7.07;6.07;;;22.60;99.90;;;;;;5045927;28;20035;-68
2021/07/13 12:31:25;;;;;;;7.32;6.63;;;22.80;99.90;;;;;;5047117;28;20025;-68
2021/07/13 12:33:54;;;;;;;7.70;6.55;;;23.00;99.90;;;;;;5062976;28;20918;-68
2021/07/13 12:36:29;;;;;;;8.35;6.57;;;23.00;99.90;;;;;;5047863;28;20032;-68
2021/07/13 12:38:55;;;;;;;8.57;6.55;;;23.10;99.90;;;;;;5063073;28;20083;-68
2021/07/13 12:41:24;;;;;;;7.20;6.35;;;23.20;99.90;;;;;;5045331;28;20032;-68
2021/07/13 12:43:49;;;;;;;8.82;6.97;;;23.30;99.90;;;;;;5029486;28;21862;-68
2021/07/13 12:46:41;;;;;;;9.02;6.50;;;23.40;99.90;;;;;;5029377;28;20036;-68
2021/07/13 12:49:09;;;;;;;10.43;7.40;;;23.50;99.90;;;;;;5042673;28;20040;-68
2021/07/13 12:51:37;;;;;;;8.18;6.75;;;23.60;99.90;;;;;;5048649;28;20028;-68
2021/07/13 12:54:10;;;;;;;10.57;6.22;;;23.70;99.90;;;;;;5046546;28;20033;-68
2021/07/13 12:56:36;;;;;;;8.75;6.90;;;23.70;99.90;;;;;;5061967;28;20048;-68